createdAt,value
2019-02-17T00:01:20.225Z,47.58
2019-02-17T00:03:52.419Z,48.58
2019-02-17T00:06:26.091Z,45.70
2019-02-17T00:08:58.411Z,49.30
2019-02-17T00:11:30.937Z,52.38
2019-02-17T00:14:03.326Z,51.65
2019-02-17T00:16:35.774Z,50.12
2019-02-17T00:19:07.973Z,51.92
2019-02-17T00:21:40.136Z,51.35
2019-02-17T00:24:12.447Z,54.00
2019-02-17T00:26:44.903Z,52.90
2019-02-17T00:29:17.268Z,57.03
2019-02-17T00:31:49.832Z,56.23
2019-02-17T00:34:22.047Z,60.67
2019-02-17T00:36:54.303Z,57.73
2019-02-17T00:39:26.817Z,58.35
2019-02-17T00:41:59.006Z,55.80
2019-02-17T00:44:31.635Z,54.60
2019-02-17T00:47:04.043Z,53.95
2019-02-17T00:49:36.274Z,52.88
2019-02-17T00:52:08.829Z,54.18
2019-02-17T00:54:41.668Z,51.90
2019-02-17T00:57:14.183Z,51.30
2019-02-17T00:59:46.546Z,50.73
2019-02-17T01:02:18.870Z,50.58
2019-02-17T01:04:51.105Z,51.73
2019-02-17T01:07:23.611Z,51.33
2019-02-17T01:09:56.031Z,51.98
2019-02-17T01:12:28.591Z,50.85
2019-02-17T01:15:00.982Z,52.75
2019-02-17T01:17:34.517Z,49.45
2019-02-17T01:20:09.136Z,49.73
2019-02-17T01:22:41.430Z,51.25
2019-02-17T01:25:13.794Z,47.67
2019-02-17T01:27:46.043Z,47.30
2019-02-17T01:30:18.358Z,45.43
2019-02-17T01:32:50.990Z,47.33
2019-02-17T01:35:23.346Z,47.23
2019-02-17T01:37:55.648Z,47.23
2019-02-17T01:40:27.862Z,45.45
2019-02-17T01:43:00.070Z,46.35
2019-02-17T01:45:32.482Z,46.40
2019-02-17T01:48:05.425Z,43.40
2019-02-17T01:50:37.914Z,41.35
2019-02-17T01:53:10.421Z,44.58
2019-02-17T01:55:42.800Z,43.00
2019-02-17T01:58:15.361Z,41.33
2019-02-17T02:00:47.592Z,42.88
2019-02-17T02:03:20.209Z,43.85
2019-02-17T02:05:52.553Z,41.65
2019-02-17T02:08:25.026Z,39.90
2019-02-17T02:10:57.776Z,40.90
2019-02-17T02:13:42.809Z,36.23
2019-02-17T02:16:14.976Z,37.58
2019-02-17T02:18:47.208Z,35.05
2019-02-17T02:21:19.530Z,33.18
2019-02-17T02:23:52.309Z,31.48
2019-02-17T02:26:24.837Z,32.73
2019-02-17T02:28:57.049Z,32.55
2019-02-17T02:31:29.794Z,31.30
2019-02-17T02:34:03.495Z,32.08
2019-02-17T02:36:35.977Z,32.20
2019-02-17T02:39:09.023Z,31.20
2019-02-17T02:41:44.094Z,30.72
2019-02-17T02:44:16.676Z,32.03
2019-02-17T02:46:48.992Z,32.88
2019-02-17T02:49:21.665Z,31.37
2019-02-17T02:51:53.895Z,30.08
2019-02-17T02:54:26.453Z,29.02
2019-02-17T02:56:58.920Z,30.50
2019-02-17T02:59:31.463Z,28.50
2019-02-17T03:02:04.202Z,33.05
2019-02-17T03:04:37.109Z,31.50
2019-02-17T03:07:09.941Z,32.25
2019-02-17T03:09:42.404Z,34.30
2019-02-17T03:12:14.664Z,31.85
2019-02-17T03:14:47.142Z,36.98
2019-02-17T03:17:20.175Z,31.40
2019-02-17T03:19:52.406Z,31.35
2019-02-17T03:22:24.687Z,28.57
2019-02-17T03:24:56.988Z,29.10
2019-02-17T03:27:29.346Z,28.42
2019-02-17T03:30:04.974Z,29.07
2019-02-17T03:32:35.211Z,27.98
2019-02-17T03:35:08.487Z,25.48
2019-02-17T03:37:42.080Z,26.12
2019-02-17T03:40:14.420Z,23.67
2019-02-17T03:42:46.676Z,28.50
2019-02-17T03:45:19.018Z,28.07
2019-02-17T03:47:51.758Z,33.70
2019-02-17T03:50:24.117Z,29.90
2019-02-17T03:52:56.527Z,32.15
2019-02-17T03:55:28.971Z,31.55
2019-02-17T03:58:01.185Z,32.30
2019-02-17T04:00:33.526Z,31.00
2019-02-17T04:03:05.960Z,31.60
2019-02-17T04:05:38.741Z,31.82
2019-02-17T04:08:11.423Z,30.92
2019-02-17T04:10:44.351Z,34.13
2019-02-17T04:13:16.762Z,32.50
2019-02-17T04:15:49.745Z,35.73
2019-02-17T04:18:22.374Z,32.88
2019-02-17T04:20:54.620Z,33.20
2019-02-17T04:23:31.257Z,32.80
2019-02-17T04:26:00.673Z,32.08
2019-02-17T04:28:33.307Z,32.88
2019-02-17T04:31:07.331Z,35.28
2019-02-17T04:33:39.899Z,34.53
2019-02-17T04:36:12.142Z,34.43
2019-02-17T04:38:44.598Z,33.23
2019-02-17T04:41:17.332Z,31.90
2019-02-17T04:43:49.550Z,29.60
2019-02-17T04:46:22.011Z,29.48
2019-02-17T04:48:54.938Z,28.90
2019-02-17T04:51:27.244Z,28.77
2019-02-17T04:53:59.808Z,28.32
2019-02-17T04:56:32.032Z,29.40
2019-02-17T04:59:04.468Z,30.08
2019-02-17T05:01:37.897Z,30.92
2019-02-17T05:04:10.335Z,34.23
2019-02-17T05:06:43.321Z,35.28
2019-02-17T05:09:16.795Z,31.77
2019-02-17T05:11:49.554Z,32.08
2019-02-17T05:14:22.012Z,32.63
2019-02-17T05:16:54.429Z,32.55
2019-02-17T05:19:26.764Z,33.30
2019-02-17T05:21:59.317Z,33.13
2019-02-17T05:24:31.697Z,33.83
2019-02-17T05:27:03.977Z,34.85
2019-02-17T05:29:36.302Z,35.33
2019-02-17T05:32:08.804Z,35.73
2019-02-17T05:34:41.269Z,34.65
2019-02-17T05:37:13.843Z,34.92
2019-02-17T05:39:46.495Z,34.00
2019-02-17T05:42:19.070Z,35.23
2019-02-17T05:44:51.659Z,36.17
2019-02-17T05:47:24.048Z,35.92
2019-02-17T05:49:56.407Z,35.38
2019-02-17T05:52:28.958Z,38.75
2019-02-17T05:55:01.312Z,40.70
2019-02-17T05:57:33.973Z,44.50
2019-02-17T06:00:10.777Z,44.67
2019-02-17T06:02:42.984Z,48.05
2019-02-17T06:05:16.398Z,50.00
2019-02-17T06:07:48.787Z,53.63
2019-02-17T06:10:21.174Z,56.25
2019-02-17T06:12:53.711Z,53.10
2019-02-17T06:15:26.249Z,56.37
2019-02-17T06:17:58.462Z,53.68
2019-02-17T06:20:30.842Z,55.45
2019-02-17T06:23:03.070Z,54.48
2019-02-17T06:25:36.542Z,55.83
2019-02-17T06:28:09.366Z,55.08
2019-02-17T06:30:41.848Z,53.98
2019-02-17T06:33:14.129Z,53.92
2019-02-17T06:35:46.446Z,55.05
2019-02-17T06:38:19.002Z,54.40
2019-02-17T06:40:53.122Z,50.52
2019-02-17T06:43:25.352Z,51.28
2019-02-17T06:45:58.174Z,51.40
2019-02-17T06:48:30.532Z,50.38
2019-02-17T06:51:02.935Z,52.30
2019-02-17T06:53:36.328Z,50.52
2019-02-17T06:56:13.940Z,51.08
2019-02-17T06:58:46.700Z,53.48
2019-02-17T07:01:24.729Z,50.00
2019-02-17T07:03:52.680Z,47.90
2019-02-17T07:06:26.396Z,44.85
2019-02-17T07:08:58.807Z,43.02
2019-02-17T07:11:31.132Z,43.48
2019-02-17T07:14:03.611Z,47.23
2019-02-17T07:16:36.086Z,44.25
2019-02-17T07:19:08.543Z,45.58
2019-02-17T07:21:41.253Z,43.28
2019-02-17T07:24:13.637Z,41.80
2019-02-17T07:26:46.132Z,43.63
2019-02-17T07:29:19.374Z,41.68
2019-02-17T07:31:51.913Z,41.85
2019-02-17T07:34:24.328Z,39.15
2019-02-17T07:36:56.904Z,39.13
2019-02-17T07:39:29.528Z,40.75
2019-02-17T07:42:01.922Z,39.98
2019-02-17T07:44:34.349Z,39.95
2019-02-17T07:47:06.816Z,37.40
2019-02-17T07:49:39.356Z,39.48
2019-02-17T07:52:11.828Z,36.50
2019-02-17T07:54:44.379Z,39.18
2019-02-17T07:57:16.932Z,35.75
2019-02-17T07:59:49.180Z,38.58
2019-02-17T08:02:21.881Z,38.13
2019-02-17T08:04:54.358Z,35.70
2019-02-17T08:07:27.117Z,37.30
2019-02-17T08:10:00.761Z,37.13
2019-02-17T08:12:33.241Z,37.05
2019-02-17T08:15:07.326Z,37.75
2019-02-17T08:17:40.132Z,36.42
2019-02-17T08:20:13.310Z,36.93
2019-02-17T08:22:45.698Z,36.63
2019-02-17T08:25:21.805Z,37.25
2019-02-17T08:27:51.743Z,34.43
2019-02-17T08:30:24.087Z,35.03
2019-02-17T08:32:56.399Z,35.45
2019-02-17T08:35:29.125Z,36.28
2019-02-17T08:38:03.387Z,37.40
2019-02-17T08:40:35.472Z,40.35
2019-02-17T08:43:07.997Z,12.10
2019-02-17T08:45:40.540Z,10.43
2019-02-17T08:48:12.993Z,7.17
2019-02-17T08:50:45.450Z,8.93
2019-02-17T08:53:17.873Z,8.28
2019-02-17T08:55:50.453Z,7.65
2019-02-17T08:58:23.064Z,5.33
2019-02-17T09:00:56.160Z,4.55
2019-02-17T09:03:28.586Z,4.60
2019-02-17T09:06:01.315Z,5.70
2019-02-17T09:08:34.138Z,6.20
2019-02-17T09:11:06.510Z,5.50
2019-02-17T09:13:38.961Z,5.87
2019-02-17T09:16:11.640Z,5.55
2019-02-17T09:18:44.393Z,5.95
2019-02-17T09:21:16.860Z,7.03
2019-02-17T09:23:49.195Z,6.28
2019-02-17T09:26:21.646Z,7.12
2019-02-17T09:28:54.056Z,7.22
2019-02-17T09:31:26.312Z,7.40
2019-02-17T09:33:58.858Z,7.15
2019-02-17T09:36:31.429Z,8.65
2019-02-17T09:39:05.534Z,10.80
2019-02-17T09:41:38.517Z,10.70
2019-02-17T09:44:11.034Z,11.25
2019-02-17T09:46:43.534Z,11.70
2019-02-17T09:49:15.856Z,10.70
2019-02-17T09:51:48.375Z,10.80
2019-02-17T09:54:20.749Z,11.48
2019-02-17T09:56:53.238Z,11.85
2019-02-17T09:59:25.687Z,14.20
2019-02-17T10:01:58.139Z,13.25
2019-02-17T10:04:30.957Z,13.72
2019-02-17T10:07:04.526Z,15.70
2019-02-17T10:09:36.817Z,13.55
2019-02-17T10:12:09.241Z,15.40
2019-02-17T10:14:41.719Z,16.87
2019-02-17T10:17:14.477Z,17.07
2019-02-17T10:19:47.224Z,18.02
2019-02-17T10:22:19.751Z,16.37
2019-02-17T10:24:51.883Z,15.83
2019-02-17T10:27:24.525Z,17.17
2019-02-17T10:29:56.739Z,17.07
2019-02-17T10:32:37.141Z,17.30
2019-02-17T10:35:03.432Z,19.55
2019-02-17T10:37:35.945Z,18.65
2019-02-17T10:40:10.975Z,19.20
2019-02-17T10:42:44.350Z,18.48
2019-02-17T10:45:17.156Z,18.80
2019-02-17T10:47:49.654Z,19.98
2019-02-17T10:50:22.122Z,19.30
2019-02-17T10:52:55.094Z,19.98
2019-02-17T10:55:27.462Z,21.50
2019-02-17T10:58:00.001Z,21.10
2019-02-17T11:00:32.505Z,22.27
2019-02-17T11:03:07.291Z,22.10
2019-02-17T11:05:39.990Z,20.77
2019-02-17T11:08:12.225Z,20.77
2019-02-17T11:10:44.715Z,24.10
2019-02-17T11:13:16.980Z,23.18
2019-02-17T11:15:50.071Z,22.90
2019-02-17T11:18:22.517Z,24.57
2019-02-17T11:20:54.621Z,24.95
2019-02-17T11:23:26.869Z,22.95
2019-02-17T11:25:58.966Z,24.10
2019-02-17T11:28:31.971Z,22.13
2019-02-17T11:31:04.289Z,22.25
2019-02-17T11:33:36.723Z,22.35
2019-02-17T11:36:09.264Z,20.95
2019-02-17T11:38:41.559Z,19.10
2019-02-17T11:41:13.894Z,21.42
2019-02-17T11:43:46.744Z,20.77
2019-02-17T11:46:19.224Z,21.82
2019-02-17T11:48:51.924Z,22.13
2019-02-17T11:51:24.164Z,22.05
2019-02-17T11:53:56.416Z,22.77
2019-02-17T11:56:29.640Z,24.45
2019-02-17T11:59:02.214Z,25.23
2019-02-17T12:01:35.076Z,24.85
2019-02-17T12:04:07.463Z,25.35
2019-02-17T12:06:39.841Z,23.50
2019-02-17T12:09:13.401Z,24.98
2019-02-17T12:11:45.961Z,25.65
2019-02-17T12:14:18.809Z,25.20
2019-02-17T12:16:51.165Z,26.17
2019-02-17T12:19:24.263Z,26.40
2019-02-17T12:21:58.088Z,26.37
2019-02-17T12:24:31.695Z,27.32
2019-02-17T12:27:05.214Z,25.48
2019-02-17T12:29:38.758Z,27.85
2019-02-17T12:32:10.991Z,27.02
2019-02-17T12:34:43.299Z,25.62
2019-02-17T12:37:15.622Z,27.87
2019-02-17T12:39:48.485Z,24.87
2019-02-17T12:42:20.821Z,25.35
2019-02-17T12:44:53.161Z,19.32
2019-02-17T12:47:25.669Z,20.25
2019-02-17T12:49:58.211Z,18.48
2019-02-17T12:52:30.809Z,24.35
2019-02-17T12:55:03.166Z,20.50
2019-02-17T12:57:48.771Z,30.60
2019-02-17T13:00:21.159Z,25.20
2019-02-17T13:02:53.464Z,25.90
2019-02-17T13:05:37.957Z,26.48
2019-02-17T13:08:10.471Z,29.27
2019-02-17T13:10:43.371Z,26.52
2019-02-17T13:13:16.082Z,30.08
2019-02-17T13:15:48.936Z,27.15
2019-02-17T13:18:21.314Z,32.73
2019-02-17T13:20:53.687Z,28.57
2019-02-17T13:23:26.028Z,28.87
2019-02-17T13:25:58.830Z,28.40
2019-02-17T13:28:31.170Z,31.77
2019-02-17T13:31:04.755Z,27.27
2019-02-17T13:33:39.396Z,36.73
2019-02-17T13:36:23.989Z,25.97
2019-02-17T13:38:56.515Z,26.93
2019-02-17T13:41:29.391Z,30.48
2019-02-17T13:44:01.943Z,28.85
2019-02-17T13:46:34.627Z,27.45
2019-02-17T13:49:07.185Z,30.72
2019-02-17T13:51:39.829Z,28.92
2019-02-17T13:54:12.339Z,32.67
2019-02-17T13:56:45.185Z,34.20
2019-02-17T13:59:17.556Z,35.23
2019-02-17T14:01:50.944Z,39.75
2019-02-17T14:04:23.629Z,33.60
2019-02-17T14:06:56.096Z,30.15
2019-02-17T14:09:29.430Z,30.90
2019-02-17T14:12:02.154Z,29.90
2019-02-17T14:14:34.792Z,29.15
2019-02-17T14:17:07.076Z,40.48
2019-02-17T14:19:39.575Z,31.60
2019-02-17T14:22:12.128Z,33.75
2019-02-17T14:24:45.339Z,31.97
2019-02-17T14:27:17.904Z,34.10
2019-02-17T14:29:50.539Z,33.10
2019-02-17T14:32:23.684Z,31.95
2019-02-17T14:34:56.008Z,35.48
2019-02-17T14:37:28.249Z,33.85
2019-02-17T14:40:01.197Z,34.35
2019-02-17T14:42:34.838Z,34.08
2019-02-17T14:45:10.748Z,32.98
2019-02-17T14:47:43.358Z,35.83
2019-02-17T14:50:16.026Z,38.23
2019-02-17T14:52:48.500Z,36.83
2019-02-17T14:55:20.999Z,31.62
2019-02-17T14:57:53.753Z,40.20
2019-02-17T15:00:26.233Z,32.38
2019-02-17T15:02:58.657Z,39.20
2019-02-17T15:05:31.567Z,45.10
2019-02-17T15:08:04.444Z,37.10
2019-02-17T15:10:37.370Z,32.60
2019-02-17T15:13:10.164Z,37.67
2019-02-17T15:15:42.317Z,38.30
2019-02-17T15:18:14.699Z,40.48
2019-02-17T15:20:48.092Z,37.88
2019-02-17T15:23:20.590Z,39.27
2019-02-17T15:25:53.826Z,39.27
2019-02-17T15:28:26.147Z,41.85
2019-02-17T15:30:58.717Z,43.80
2019-02-17T15:33:30.927Z,44.80
2019-02-17T15:36:03.514Z,46.73
2019-02-17T15:38:35.807Z,46.25
2019-02-17T15:41:08.219Z,51.08
2019-02-17T15:43:40.833Z,51.60
2019-02-17T15:46:13.620Z,58.17
2019-02-17T15:48:46.019Z,52.88
2019-02-17T15:51:18.477Z,56.92
2019-02-17T15:53:50.708Z,56.83
2019-02-17T15:56:23.394Z,51.77
2019-02-17T15:58:57.220Z,51.80
2019-02-17T16:01:29.974Z,56.42
2019-02-17T16:04:02.228Z,58.58
2019-02-17T16:06:34.745Z,55.45
2019-02-17T16:09:07.895Z,62.53
2019-02-17T16:11:40.338Z,75.75
2019-02-17T16:14:13.100Z,68.83
2019-02-17T16:16:45.530Z,79.58
2019-02-17T16:19:18.117Z,61.00
2019-02-17T16:21:50.771Z,49.13
2019-02-17T16:24:23.019Z,45.83
2019-02-17T16:26:55.285Z,49.75
2019-02-17T16:29:27.921Z,51.60
2019-02-17T16:32:00.577Z,47.45
2019-02-17T16:34:38.423Z,47.60
2019-02-17T16:37:06.514Z,49.70
2019-02-17T16:39:39.026Z,45.40
2019-02-17T16:42:12.076Z,50.33
2019-02-17T16:44:44.387Z,48.95
2019-02-17T16:47:16.883Z,49.95
2019-02-17T16:49:49.383Z,44.48
2019-02-17T16:52:21.861Z,45.80
2019-02-17T16:54:54.317Z,45.38
2019-02-17T16:57:26.961Z,43.65
2019-02-17T16:59:59.901Z,43.65
2019-02-17T17:02:32.325Z,43.52
2019-02-17T17:05:05.524Z,45.15
2019-02-17T17:07:38.151Z,43.70
2019-02-17T17:10:11.011Z,42.03
2019-02-17T17:12:43.532Z,45.35
2019-02-17T17:15:17.381Z,42.65
2019-02-17T17:17:49.808Z,45.80
2019-02-17T17:20:23.460Z,45.38
2019-02-17T17:22:55.640Z,43.58
2019-02-17T17:25:28.219Z,39.25
2019-02-17T17:28:00.813Z,40.58
2019-02-17T17:30:33.236Z,44.60
2019-02-17T17:33:06.167Z,40.67
2019-02-17T17:35:38.943Z,40.43
2019-02-17T17:38:11.372Z,40.92
2019-02-17T17:40:43.617Z,38.15
2019-02-17T17:43:15.931Z,39.70
2019-02-17T17:45:49.263Z,38.53
2019-02-17T17:48:21.693Z,38.25
2019-02-17T17:50:54.017Z,37.15
2019-02-17T17:53:26.866Z,36.48
2019-02-17T17:55:59.194Z,40.50
2019-02-17T17:58:31.685Z,35.25
2019-02-17T18:01:04.070Z,34.70
2019-02-17T18:03:36.780Z,36.42
2019-02-17T18:06:10.126Z,37.83
2019-02-17T18:08:42.521Z,33.05
2019-02-17T18:11:15.010Z,34.05
2019-02-17T18:13:47.264Z,38.25
2019-02-17T18:16:19.894Z,35.80
2019-02-17T18:18:52.204Z,34.63
2019-02-17T18:21:24.571Z,34.90
2019-02-17T18:23:56.798Z,35.63
2019-02-17T18:26:29.343Z,37.10
2019-02-17T18:29:01.691Z,36.23
2019-02-17T18:31:34.532Z,37.58
2019-02-17T18:34:08.042Z,41.98
2019-02-17T18:36:43.846Z,36.13
2019-02-17T18:39:16.729Z,38.17
2019-02-17T18:41:49.175Z,34.03
2019-02-17T18:44:21.436Z,35.48
2019-02-17T18:46:57.502Z,37.03
2019-02-17T18:49:30.867Z,32.30
2019-02-17T18:52:03.749Z,33.05
2019-02-17T18:54:37.599Z,36.65
2019-02-17T18:57:14.807Z,40.28
2019-02-17T18:59:50.118Z,34.88
2019-02-17T19:02:22.481Z,35.90
2019-02-17T19:04:54.806Z,36.38
2019-02-17T19:07:27.669Z,33.13
2019-02-17T19:09:59.776Z,30.85
2019-02-17T19:12:32.453Z,34.23
2019-02-17T19:15:04.893Z,38.20
2019-02-17T19:17:37.140Z,37.03
2019-02-17T19:20:11.893Z,37.83
2019-02-17T19:22:44.493Z,34.05
2019-02-17T19:25:16.860Z,35.92
2019-02-17T19:27:49.544Z,33.67
2019-02-17T19:30:26.366Z,33.80
2019-02-17T19:32:59.438Z,35.75
2019-02-17T19:35:40.992Z,35.98
2019-02-17T19:38:06.481Z,35.95
2019-02-17T19:40:40.668Z,34.30
2019-02-17T19:43:17.133Z,35.95
2019-02-17T19:45:54.476Z,36.20
2019-02-17T19:48:25.919Z,38.17
2019-02-17T19:50:58.800Z,36.08
2019-02-17T19:53:33.324Z,36.63
2019-02-17T19:56:07.674Z,35.65
2019-02-17T19:58:40.002Z,41.37
2019-02-17T20:01:12.770Z,44.60
2019-02-17T20:03:46.841Z,44.10
2019-02-17T20:06:20.611Z,43.60
2019-02-17T20:08:52.752Z,46.08
2019-02-17T20:11:25.308Z,46.68
2019-02-17T20:13:57.872Z,45.12
2019-02-17T20:16:30.451Z,40.95
2019-02-17T20:19:03.006Z,46.70
2019-02-17T20:21:35.497Z,43.73
2019-02-17T20:24:08.279Z,48.02
2019-02-17T20:26:40.613Z,43.73
2019-02-17T20:29:13.218Z,41.30
2019-02-17T20:31:45.448Z,41.23
2019-02-17T20:34:18.151Z,39.45
2019-02-17T20:36:50.571Z,43.78
2019-02-17T20:39:22.972Z,42.90
2019-02-17T20:41:55.185Z,41.75
2019-02-17T20:44:28.489Z,42.43
2019-02-17T20:47:03.706Z,45.35
2019-02-17T20:49:36.278Z,44.25
2019-02-17T20:52:10.547Z,46.55
2019-02-17T20:54:42.620Z,44.90
2019-02-17T20:57:14.896Z,43.63
2019-02-17T20:59:47.125Z,42.50
2019-02-17T21:02:19.491Z,41.45
2019-02-17T21:04:51.918Z,39.92
2019-02-17T21:07:24.239Z,41.85
2019-02-17T21:09:56.392Z,41.20
2019-02-17T21:12:28.963Z,41.95
2019-02-17T21:15:01.215Z,43.38
2019-02-17T21:17:33.907Z,42.05
2019-02-17T21:20:06.638Z,42.13
2019-02-17T21:22:39.043Z,41.45
2019-02-17T21:25:13.141Z,38.23
2019-02-17T21:27:46.835Z,46.68
2019-02-17T21:30:20.306Z,47.23
2019-02-17T21:32:52.557Z,43.63
2019-02-17T21:35:24.834Z,48.80
2019-02-17T21:37:57.047Z,42.70
2019-02-17T21:40:29.530Z,37.63
2019-02-17T21:43:01.681Z,41.42
2019-02-17T21:45:34.275Z,46.25
2019-02-17T21:48:07.023Z,40.23
2019-02-17T21:50:39.398Z,41.33
2019-02-17T21:53:20.526Z,41.55
2019-02-17T21:55:45.624Z,42.50
2019-02-17T21:58:17.895Z,43.08
2019-02-17T22:00:50.576Z,43.58
2019-02-17T22:03:23.500Z,41.40
2019-02-17T22:05:55.836Z,45.17
2019-02-17T22:08:28.673Z,47.65
2019-02-17T22:11:01.447Z,42.67
2019-02-17T22:13:33.873Z,40.38
2019-02-17T22:16:06.417Z,42.45
2019-02-17T22:18:38.838Z,41.65
2019-02-17T22:21:11.094Z,42.35
2019-02-17T22:23:43.605Z,42.43
2019-02-17T22:26:15.936Z,43.10
2019-02-17T22:28:48.191Z,43.80
2019-02-17T22:31:20.736Z,44.93
2019-02-17T22:33:52.983Z,45.43
2019-02-17T22:36:25.926Z,43.85
2019-02-17T22:38:58.292Z,44.33
2019-02-17T22:41:30.865Z,47.43
2019-02-17T22:44:03.063Z,47.48
2019-02-17T22:46:35.607Z,45.73
2019-02-17T22:49:08.472Z,46.98
2019-02-17T22:51:40.799Z,44.75
2019-02-17T22:54:13.098Z,44.90
2019-02-17T22:56:45.818Z,47.10
2019-02-17T22:59:19.311Z,43.68
2019-02-17T23:01:52.479Z,48.33
2019-02-17T23:04:26.115Z,42.78
2019-02-17T23:06:58.647Z,47.30
2019-02-17T23:09:31.192Z,48.78
2019-02-17T23:12:03.636Z,50.08
2019-02-17T23:14:36.459Z,48.80
2019-02-17T23:17:09.124Z,49.80
2019-02-17T23:19:41.355Z,49.95
2019-02-17T23:22:14.227Z,51.23
2019-02-17T23:24:46.851Z,50.73
2019-02-17T23:27:19.209Z,50.30
2019-02-17T23:29:51.692Z,59.23
2019-02-17T23:32:24.138Z,54.27
2019-02-17T23:34:56.713Z,54.30
2019-02-17T23:37:29.484Z,57.93
2019-02-17T23:40:01.972Z,52.75
2019-02-17T23:42:34.594Z,54.67
2019-02-17T23:45:08.749Z,55.03
2019-02-17T23:47:41.232Z,53.23
2019-02-17T23:50:15.583Z,55.40
2019-02-17T23:52:48.287Z,54.80
2019-02-17T23:55:20.584Z,56.83
2019-02-17T23:57:53.182Z,61.60
